sensor_id;sensor_type;location;lat;lon;timestamp;P1;durP1;ratioP1;P2;durP2;ratioP2
43098;SDS011;28715;51.988;6.020;2022-07-22T00:05:00;10.33;;;3.27;;
43098;SDS011;28715;51.988;6.020;2022-07-22T00:15:29;10.77;;;3.20;;
43098;SDS011;28715;51.988;6.020;2022-07-22T00:45:25;13.13;;;3.80;;
43098;SDS011;28715;51.988;6.020;2022-07-22T00:52:15;11.40;;;3.67;;
43098;SDS011;28715;51.988;6.020;2022-07-22T04:29:56;14.17;;;4.00;;
43098;SDS011;28715;51.988;6.020;2022-07-22T04:35:43;12.70;;;4.33;;
43098;SDS011;28715;51.988;6.020;2022-07-22T04:38:09;12.60;;;4.20;;
43098;SDS011;28715;51.988;6.020;2022-07-22T04:40:34;12.60;;;3.90;;
43098;SDS011;28715;51.988;6.020;2022-07-22T04:43:00;9.57;;;3.47;;
43098;SDS011;28715;51.988;6.020;2022-07-22T04:45:26;12.37;;;3.87;;
43098;SDS011;28715;51.988;6.020;2022-07-22T04:47:51;11.07;;;4.53;;
43098;SDS011;28715;51.988;6.020;2022-07-22T04:50:17;10.43;;;4.07;;
43098;SDS011;28715;51.988;6.020;2022-07-22T04:52:42;9.17;;;3.93;;
43098;SDS011;28715;51.988;6.020;2022-07-22T04:55:08;7.57;;;3.90;;
43098;SDS011;28715;51.988;6.020;2022-07-22T04:57:34;7.47;;;3.43;;
43098;SDS011;28715;51.988;6.020;2022-07-22T05:00:00;12.90;;;3.90;;
43098;SDS011;28715;51.988;6.020;2022-07-22T05:02:26;9.60;;;3.93;;
43098;SDS011;28715;51.988;6.020;2022-07-22T05:04:51;12.10;;;4.80;;
43098;SDS011;28715;51.988;6.020;2022-07-22T05:07:17;12.03;;;4.13;;
43098;SDS011;28715;51.988;6.020;2022-07-22T05:09:51;7.97;;;3.03;;
43098;SDS011;28715;51.988;6.020;2022-07-22T05:12:20;12.07;;;4.00;;
43098;SDS011;28715;51.988;6.020;2022-07-22T05:14:46;8.43;;;4.00;;
43098;SDS011;28715;51.988;6.020;2022-07-22T05:17:11;7.97;;;3.57;;
43098;SDS011;28715;51.988;6.020;2022-07-22T05:19:40;7.73;;;3.70;;
43098;SDS011;28715;51.988;6.020;2022-07-22T05:22:06;9.73;;;3.90;;
43098;SDS011;28715;51.988;6.020;2022-07-22T05:24:32;9.00;;;3.80;;
43098;SDS011;28715;51.988;6.020;2022-07-22T05:26:58;9.97;;;3.30;;
43098;SDS011;28715;51.988;6.020;2022-07-22T05:29:23;12.73;;;3.93;;
43098;SDS011;28715;51.988;6.020;2022-07-22T05:31:49;11.13;;;3.37;;
43098;SDS011;28715;51.988;6.020;2022-07-22T05:34:14;9.83;;;3.53;;
43098;SDS011;28715;51.988;6.020;2022-07-22T05:36:40;11.97;;;3.70;;
43098;SDS011;28715;51.988;6.020;2022-07-22T05:39:06;9.37;;;3.50;;
43098;SDS011;28715;51.988;6.020;2022-07-22T05:41:31;7.80;;;3.33;;
43098;SDS011;28715;51.988;6.020;2022-07-22T05:43:57;14.13;;;3.90;;
43098;SDS011;28715;51.988;6.020;2022-07-22T05:46:22;10.10;;;3.40;;
43098;SDS011;28715;51.988;6.020;2022-07-22T05:48:48;9.00;;;3.20;;
43098;SDS011;28715;51.988;6.020;2022-07-22T05:51:13;9.50;;;3.57;;
43098;SDS011;28715;51.988;6.020;2022-07-22T05:53:40;10.20;;;3.70;;
43098;SDS011;28715;51.988;6.020;2022-07-22T05:56:07;9.53;;;3.20;;
43098;SDS011;28715;51.988;6.020;2022-07-22T05:58:33;8.97;;;3.50;;
43098;SDS011;28715;51.988;6.020;2022-07-22T06:00:59;15.30;;;3.50;;
43098;SDS011;28715;51.988;6.020;2022-07-22T06:03:25;10.73;;;3.70;;
43098;SDS011;28715;51.988;6.020;2022-07-22T06:05:50;10.23;;;3.50;;
43098;SDS011;28715;51.988;6.020;2022-07-22T06:08:16;8.97;;;4.10;;
43098;SDS011;28715;51.988;6.020;2022-07-22T06:10:42;10.47;;;3.90;;
43098;SDS011;28715;51.988;6.020;2022-07-22T06:13:07;14.03;;;3.60;;
43098;SDS011;28715;51.988;6.020;2022-07-22T06:15:33;10.60;;;2.93;;
43098;SDS011;28715;51.988;6.020;2022-07-22T06:17:59;11.33;;;3.50;;
43098;SDS011;28715;51.988;6.020;2022-07-22T06:20:24;9.40;;;3.47;;
43098;SDS011;28715;51.988;6.020;2022-07-22T06:22:50;9.77;;;3.40;;
43098;SDS011;28715;51.988;6.020;2022-07-22T06:25:15;11.53;;;3.77;;
43098;SDS011;28715;51.988;6.020;2022-07-22T06:27:41;10.07;;;3.50;;
43098;SDS011;28715;51.988;6.020;2022-07-22T06:30:06;11.17;;;3.40;;
43098;SDS011;28715;51.988;6.020;2022-07-22T06:32:33;9.20;;;3.30;;
43098;SDS011;28715;51.988;6.020;2022-07-22T06:34:58;13.37;;;3.67;;
43098;SDS011;28715;51.988;6.020;2022-07-22T06:37:24;9.53;;;3.27;;
43098;SDS011;28715;51.988;6.020;2022-07-22T06:39:49;11.40;;;3.10;;
43098;SDS011;28715;51.988;6.020;2022-07-22T06:42:15;6.00;;;2.50;;
43098;SDS011;28715;51.988;6.020;2022-07-22T06:44:41;9.23;;;2.50;;
43098;SDS011;28715;51.988;6.020;2022-07-22T06:47:06;9.00;;;2.77;;
43098;SDS011;28715;51.988;6.020;2022-07-22T06:49:32;11.30;;;2.60;;
43098;SDS011;28715;51.988;6.020;2022-07-22T06:51:57;8.77;;;2.30;;
43098;SDS011;28715;51.988;6.020;2022-07-22T06:54:23;7.03;;;2.67;;
43098;SDS011;28715;51.988;6.020;2022-07-22T06:56:48;8.47;;;2.97;;
43098;SDS011;28715;51.988;6.020;2022-07-22T06:59:14;9.67;;;2.77;;
43098;SDS011;28715;51.988;6.020;2022-07-22T07:01:39;9.07;;;2.70;;
43098;SDS011;28715;51.988;6.020;2022-07-22T07:04:05;8.87;;;2.70;;
43098;SDS011;28715;51.988;6.020;2022-07-22T07:06:30;5.43;;;2.37;;
43098;SDS011;28715;51.988;6.020;2022-07-22T07:08:57;7.10;;;2.23;;
43098;SDS011;28715;51.988;6.020;2022-07-22T07:11:23;7.73;;;2.27;;
43098;SDS011;28715;51.988;6.020;2022-07-22T07:13:49;6.97;;;3.10;;
43098;SDS011;28715;51.988;6.020;2022-07-22T07:16:14;9.00;;;2.90;;
43098;SDS011;28715;51.988;6.020;2022-07-22T07:18:40;9.23;;;2.90;;
43098;SDS011;28715;51.988;6.020;2022-07-22T07:21:06;8.00;;;2.50;;
43098;SDS011;28715;51.988;6.020;2022-07-22T07:23:31;6.43;;;2.40;;
43098;SDS011;28715;51.988;6.020;2022-07-22T07:25:57;7.90;;;2.60;;
43098;SDS011;28715;51.988;6.020;2022-07-22T07:28:22;6.37;;;2.60;;
43098;SDS011;28715;51.988;6.020;2022-07-22T07:30:48;7.23;;;2.80;;
43098;SDS011;28715;51.988;6.020;2022-07-22T07:33:14;7.67;;;2.70;;
43098;SDS011;28715;51.988;6.020;2022-07-22T07:35:40;8.70;;;2.60;;
43098;SDS011;28715;51.988;6.020;2022-07-22T07:38:05;8.73;;;2.20;;
43098;SDS011;28715;51.988;6.020;2022-07-22T07:40:31;10.27;;;2.37;;
43098;SDS011;28715;51.988;6.020;2022-07-22T07:42:57;7.87;;;2.00;;
43098;SDS011;28715;51.988;6.020;2022-07-22T07:45:23;8.17;;;2.33;;
43098;SDS011;28715;51.988;6.020;2022-07-22T07:47:49;6.33;;;2.00;;
43098;SDS011;28715;51.988;6.020;2022-07-22T07:50:14;6.67;;;2.00;;
43098;SDS011;28715;51.988;6.020;2022-07-22T07:52:41;8.23;;;1.80;;
43098;SDS011;28715;51.988;6.020;2022-07-22T07:55:08;7.47;;;1.70;;
43098;SDS011;28715;51.988;6.020;2022-07-22T07:57:34;5.37;;;1.47;;
43098;SDS011;28715;51.988;6.020;2022-07-22T08:00:01;8.67;;;1.90;;
43098;SDS011;28715;51.988;6.020;2022-07-22T08:02:29;7.40;;;1.90;;
43098;SDS011;28715;51.988;6.020;2022-07-22T08:04:54;6.83;;;2.20;;
43098;SDS011;28715;51.988;6.020;2022-07-22T08:07:20;5.00;;;1.60;;
43098;SDS011;28715;51.988;6.020;2022-07-22T08:09:45;4.87;;;1.90;;
43098;SDS011;28715;51.988;6.020;2022-07-22T08:12:11;6.37;;;1.70;;
43098;SDS011;28715;51.988;6.020;2022-07-22T08:14:37;7.70;;;1.90;;
43098;SDS011;28715;51.988;6.020;2022-07-22T08:17:02;6.90;;;2.23;;
43098;SDS011;28715;51.988;6.020;2022-07-22T08:19:28;7.00;;;1.70;;
43098;SDS011;28715;51.988;6.020;2022-07-22T08:21:54;7.43;;;1.97;;
43098;SDS011;28715;51.988;6.020;2022-07-22T08:24:19;7.10;;;1.80;;
43098;SDS011;28715;51.988;6.020;2022-07-22T08:26:45;8.57;;;2.10;;
43098;SDS011;28715;51.988;6.020;2022-07-22T08:29:10;5.90;;;1.70;;
43098;SDS011;28715;51.988;6.020;2022-07-22T08:31:37;8.80;;;2.27;;
43098;SDS011;28715;51.988;6.020;2022-07-22T08:34:04;6.13;;;2.20;;
43098;SDS011;28715;51.988;6.020;2022-07-22T08:36:30;8.80;;;2.50;;
43098;SDS011;28715;51.988;6.020;2022-07-22T08:38:56;9.47;;;2.77;;
43098;SDS011;28715;51.988;6.020;2022-07-22T08:41:22;6.67;;;2.47;;
43098;SDS011;28715;51.988;6.020;2022-07-22T08:43:49;9.13;;;2.50;;
43098;SDS011;28715;51.988;6.020;2022-07-22T08:46:15;7.40;;;2.13;;
43098;SDS011;28715;51.988;6.020;2022-07-22T08:48:41;7.53;;;2.60;;
43098;SDS011;28715;51.988;6.020;2022-07-22T08:51:06;7.03;;;2.00;;
43098;SDS011;28715;51.988;6.020;2022-07-22T08:53:32;4.83;;;1.97;;
43098;SDS011;28715;51.988;6.020;2022-07-22T08:55:58;5.80;;;2.00;;
43098;SDS011;28715;51.988;6.020;2022-07-22T08:58:25;4.53;;;1.70;;
43098;SDS011;28715;51.988;6.020;2022-07-22T09:01:04;5.57;;;1.90;;
43098;SDS011;28715;51.988;6.020;2022-07-22T09:03:30;4.90;;;2.05;;
43098;SDS011;28715;51.988;6.020;2022-07-22T09:05:55;9.13;;;1.80;;
43098;SDS011;28715;51.988;6.020;2022-07-22T09:08:21;4.27;;;1.77;;
43098;SDS011;28715;51.988;6.020;2022-07-22T09:10:47;8.03;;;1.70;;
43098;SDS011;28715;51.988;6.020;2022-07-22T09:13:14;6.40;;;1.47;;
43098;SDS011;28715;51.988;6.020;2022-07-22T09:15:50;4.20;;;1.70;;
43098;SDS011;28715;51.988;6.020;2022-07-22T09:18:18;5.43;;;1.90;;
43098;SDS011;28715;51.988;6.020;2022-07-22T09:20:43;6.17;;;1.90;;
43098;SDS011;28715;51.988;6.020;2022-07-22T09:23:13;8.23;;;1.80;;
43098;SDS011;28715;51.988;6.020;2022-07-22T09:25:46;5.00;;;1.77;;
43098;SDS011;28715;51.988;6.020;2022-07-22T09:28:14;9.27;;;1.77;;
43098;SDS011;28715;51.988;6.020;2022-07-22T09:30:47;5.40;;;1.50;;
43098;SDS011;28715;51.988;6.020;2022-07-22T09:33:14;4.57;;;1.67;;
43098;SDS011;28715;51.988;6.020;2022-07-22T09:35:40;5.07;;;1.80;;
43098;SDS011;28715;51.988;6.020;2022-07-22T09:38:07;6.47;;;1.53;;
43098;SDS011;28715;51.988;6.020;2022-07-22T09:40:35;7.27;;;1.60;;
43098;SDS011;28715;51.988;6.020;2022-07-22T09:43:03;6.63;;;1.80;;
43098;SDS011;28715;51.988;6.020;2022-07-22T09:45:31;5.23;;;1.93;;
43098;SDS011;28715;51.988;6.020;2022-07-22T09:47:58;5.63;;;2.03;;
43098;SDS011;28715;51.988;6.020;2022-07-22T09:50:26;5.50;;;1.90;;
43098;SDS011;28715;51.988;6.020;2022-07-22T09:52:53;6.00;;;2.10;;
43098;SDS011;28715;51.988;6.020;2022-07-22T09:55:22;6.10;;;1.90;;
43098;SDS011;28715;51.988;6.020;2022-07-22T09:57:49;4.83;;;1.77;;
43098;SDS011;28715;51.988;6.020;2022-07-22T10:00:16;4.80;;;1.53;;
43098;SDS011;28715;51.988;6.020;2022-07-22T10:02:51;4.03;;;1.67;;
43098;SDS011;28715;51.988;6.020;2022-07-22T10:05:20;5.87;;;1.67;;
43098;SDS011;28715;51.988;6.020;2022-07-22T10:07:47;4.60;;;1.45;;
43098;SDS011;28715;51.988;6.020;2022-07-22T10:10:15;4.17;;;1.80;;
43098;SDS011;28715;51.988;6.020;2022-07-22T10:12:43;5.82;;;1.33;;
43098;SDS011;28715;51.988;6.020;2022-07-22T10:15:10;4.80;;;1.77;;
43098;SDS011;28715;51.988;6.020;2022-07-22T10:17:37;5.00;;;1.60;;
43098;SDS011;28715;51.988;6.020;2022-07-22T10:20:05;4.97;;;1.70;;
43098;SDS011;28715;51.988;6.020;2022-07-22T10:25:05;4.57;;;1.53;;
43098;SDS011;28715;51.988;6.020;2022-07-22T10:30:25;4.13;;;1.40;;
43098;SDS011;28715;51.988;6.020;2022-07-22T10:33:07;5.70;;;1.80;;
43098;SDS011;28715;51.988;6.020;2022-07-22T10:35:37;4.80;;;1.70;;
43098;SDS011;28715;51.988;6.020;2022-07-22T10:38:23;5.90;;;1.57;;
43098;SDS011;28715;51.988;6.020;2022-07-22T10:40:57;4.93;;;1.40;;
43098;SDS011;28715;51.988;6.020;2022-07-22T10:43:49;5.27;;;1.50;;
43098;SDS011;28715;51.988;6.020;2022-07-22T10:46:13;7.23;;;1.40;;
43098;SDS011;28715;51.988;6.020;2022-07-22T10:51:17;5.40;;;1.60;;
43098;SDS011;28715;51.988;6.020;2022-07-22T10:53:46;5.93;;;1.53;;
43098;SDS011;28715;51.988;6.020;2022-07-22T10:58:52;5.53;;;2.00;;
43098;SDS011;28715;51.988;6.020;2022-07-22T11:01:39;3.70;;;1.37;;
43098;SDS011;28715;51.988;6.020;2022-07-22T11:04:09;5.03;;;1.67;;
43098;SDS011;28715;51.988;6.020;2022-07-22T11:06:36;4.88;;;1.40;;
43098;SDS011;28715;51.988;6.020;2022-07-22T11:09:03;5.07;;;1.53;;
43098;SDS011;28715;51.988;6.020;2022-07-22T11:11:34;5.63;;;1.43;;
43098;SDS011;28715;51.988;6.020;2022-07-22T11:13:59;5.03;;;1.50;;
43098;SDS011;28715;51.988;6.020;2022-07-22T11:16:26;4.97;;;1.63;;
43098;SDS011;28715;51.988;6.020;2022-07-22T11:18:53;4.20;;;1.33;;
43098;SDS011;28715;51.988;6.020;2022-07-22T11:21:20;5.30;;;1.40;;
43098;SDS011;28715;51.988;6.020;2022-07-22T11:23:48;4.00;;;1.50;;
43098;SDS011;28715;51.988;6.020;2022-07-22T11:26:15;3.87;;;1.67;;
43098;SDS011;28715;51.988;6.020;2022-07-22T11:28:43;3.87;;;1.30;;
43098;SDS011;28715;51.988;6.020;2022-07-22T11:31:13;4.13;;;1.50;;
43098;SDS011;28715;51.988;6.020;2022-07-22T11:33:40;4.40;;;1.10;;
43098;SDS011;28715;51.988;6.020;2022-07-22T11:36:06;4.80;;;1.43;;
43098;SDS011;28715;51.988;6.020;2022-07-22T11:41:07;3.53;;;1.30;;
43098;SDS011;28715;51.988;6.020;2022-07-22T11:43:47;4.67;;;1.30;;
43098;SDS011;28715;51.988;6.020;2022-07-22T11:46:14;5.27;;;1.50;;
43098;SDS011;28715;51.988;6.020;2022-07-22T11:48:41;4.90;;;1.50;;
43098;SDS011;28715;51.988;6.020;2022-07-22T11:51:08;3.40;;;1.27;;
43098;SDS011;28715;51.988;6.020;2022-07-22T11:53:38;4.03;;;1.20;;
43098;SDS011;28715;51.988;6.020;2022-07-22T11:56:06;4.33;;;1.40;;
43098;SDS011;28715;51.988;6.020;2022-07-22T11:58:34;8.20;;;1.67;;
43098;SDS011;28715;51.988;6.020;2022-07-22T12:01:00;3.47;;;1.50;;
43098;SDS011;28715;51.988;6.020;2022-07-22T12:03:25;4.00;;;1.40;;
43098;SDS011;28715;51.988;6.020;2022-07-22T12:05:51;3.17;;;1.20;;
43098;SDS011;28715;51.988;6.020;2022-07-22T12:08:18;3.73;;;1.60;;
43098;SDS011;28715;51.988;6.020;2022-07-22T12:10:43;4.50;;;1.50;;
43098;SDS011;28715;51.988;6.020;2022-07-22T12:13:12;5.37;;;1.80;;
43098;SDS011;28715;51.988;6.020;2022-07-22T12:15:38;3.47;;;1.42;;
43098;SDS011;28715;51.988;6.020;2022-07-22T12:18:20;4.47;;;1.63;;
43098;SDS011;28715;51.988;6.020;2022-07-22T12:20:48;4.70;;;1.73;;
43098;SDS011;28715;51.988;6.020;2022-07-22T12:23:15;4.00;;;1.53;;
43098;SDS011;28715;51.988;6.020;2022-07-22T12:25:54;5.07;;;1.70;;
43098;SDS011;28715;51.988;6.020;2022-07-22T12:28:22;3.40;;;1.50;;
43098;SDS011;28715;51.988;6.020;2022-07-22T12:30:49;5.20;;;1.60;;
43098;SDS011;28715;51.988;6.020;2022-07-22T12:33:16;6.20;;;1.43;;
43098;SDS011;28715;51.988;6.020;2022-07-22T12:35:42;4.70;;;1.63;;
43098;SDS011;28715;51.988;6.020;2022-07-22T12:38:09;3.93;;;1.50;;
43098;SDS011;28715;51.988;6.020;2022-07-22T12:40:36;3.77;;;1.27;;
43098;SDS011;28715;51.988;6.020;2022-07-22T12:43:08;3.93;;;1.20;;
43098;SDS011;28715;51.988;6.020;2022-07-22T12:45:35;3.63;;;1.40;;
43098;SDS011;28715;51.988;6.020;2022-07-22T12:50:29;4.03;;;1.80;;
43098;SDS011;28715;51.988;6.020;2022-07-22T12:52:56;2.87;;;1.40;;
43098;SDS011;28715;51.988;6.020;2022-07-22T12:55:30;3.87;;;1.30;;
43098;SDS011;28715;51.988;6.020;2022-07-22T12:57:57;4.57;;;1.43;;
43098;SDS011;28715;51.988;6.020;2022-07-22T13:00:23;4.03;;;1.37;;
43098;SDS011;28715;51.988;6.020;2022-07-22T13:02:50;4.70;;;1.43;;
43098;SDS011;28715;51.988;6.020;2022-07-22T13:05:17;4.03;;;1.77;;
43098;SDS011;28715;51.988;6.020;2022-07-22T13:07:43;3.70;;;1.40;;
43098;SDS011;28715;51.988;6.020;2022-07-22T13:10:10;2.87;;;1.37;;
43098;SDS011;28715;51.988;6.020;2022-07-22T13:12:36;3.50;;;1.23;;
43098;SDS011;28715;51.988;6.020;2022-07-22T13:15:02;3.23;;;1.50;;
43098;SDS011;28715;51.988;6.020;2022-07-22T13:17:28;3.87;;;1.30;;
43098;SDS011;28715;51.988;6.020;2022-07-22T13:19:54;6.23;;;1.30;;
43098;SDS011;28715;51.988;6.020;2022-07-22T13:22:20;3.80;;;1.50;;
43098;SDS011;28715;51.988;6.020;2022-07-22T13:24:45;5.60;;;1.87;;
43098;SDS011;28715;51.988;6.020;2022-07-22T13:27:11;5.47;;;1.80;;
43098;SDS011;28715;51.988;6.020;2022-07-22T13:29:37;6.07;;;2.30;;
43098;SDS011;28715;51.988;6.020;2022-07-22T13:32:03;5.20;;;2.17;;
43098;SDS011;28715;51.988;6.020;2022-07-22T13:34:28;4.83;;;1.90;;
43098;SDS011;28715;51.988;6.020;2022-07-22T13:36:54;5.73;;;2.30;;
43098;SDS011;28715;51.988;6.020;2022-07-22T13:39:20;4.50;;;1.87;;
43098;SDS011;28715;51.988;6.020;2022-07-22T13:41:47;4.43;;;1.70;;
43098;SDS011;28715;51.988;6.020;2022-07-22T13:44:12;4.50;;;2.07;;
43098;SDS011;28715;51.988;6.020;2022-07-22T13:46:38;6.57;;;2.07;;
43098;SDS011;28715;51.988;6.020;2022-07-22T13:49:03;5.23;;;2.13;;
43098;SDS011;28715;51.988;6.020;2022-07-22T13:51:29;4.60;;;1.70;;
43098;SDS011;28715;51.988;6.020;2022-07-22T13:53:55;5.10;;;2.00;;
43098;SDS011;28715;51.988;6.020;2022-07-22T13:56:21;5.20;;;2.03;;
43098;SDS011;28715;51.988;6.020;2022-07-22T13:58:47;3.50;;;1.70;;
43098;SDS011;28715;51.988;6.020;2022-07-22T14:01:12;5.40;;;1.70;;
43098;SDS011;28715;51.988;6.020;2022-07-22T14:03:38;3.93;;;1.90;;
43098;SDS011;28715;51.988;6.020;2022-07-22T14:06:04;4.37;;;1.63;;
43098;SDS011;28715;51.988;6.020;2022-07-22T14:08:30;4.93;;;2.00;;
43098;SDS011;28715;51.988;6.020;2022-07-22T14:10:56;5.60;;;2.20;;
43098;SDS011;28715;51.988;6.020;2022-07-22T14:13:22;3.87;;;1.60;;
43098;SDS011;28715;51.988;6.020;2022-07-22T14:15:48;4.63;;;2.17;;
43098;SDS011;28715;51.988;6.020;2022-07-22T14:18:14;6.23;;;2.03;;
43098;SDS011;28715;51.988;6.020;2022-07-22T14:20:39;4.33;;;1.90;;
43098;SDS011;28715;51.988;6.020;2022-07-22T14:23:05;5.60;;;2.07;;
43098;SDS011;28715;51.988;6.020;2022-07-22T14:25:34;4.47;;;1.90;;
43098;SDS011;28715;51.988;6.020;2022-07-22T14:28:00;7.10;;;2.33;;
43098;SDS011;28715;51.988;6.020;2022-07-22T14:30:26;4.47;;;2.17;;
43098;SDS011;28715;51.988;6.020;2022-07-22T14:32:53;3.57;;;2.00;;
43098;SDS011;28715;51.988;6.020;2022-07-22T14:35:19;6.53;;;2.00;;
43098;SDS011;28715;51.988;6.020;2022-07-22T14:37:44;4.97;;;1.90;;
43098;SDS011;28715;51.988;6.020;2022-07-22T14:40:10;5.10;;;2.10;;
43098;SDS011;28715;51.988;6.020;2022-07-22T14:42:36;4.30;;;2.10;;
43098;SDS011;28715;51.988;6.020;2022-07-22T14:45:02;5.07;;;2.10;;
43098;SDS011;28715;51.988;6.020;2022-07-22T14:47:29;6.03;;;2.03;;
43098;SDS011;28715;51.988;6.020;2022-07-22T14:49:54;5.87;;;2.07;;
43098;SDS011;28715;51.988;6.020;2022-07-22T14:52:20;4.00;;;2.00;;
43098;SDS011;28715;51.988;6.020;2022-07-22T14:54:46;5.33;;;1.90;;
43098;SDS011;28715;51.988;6.020;2022-07-22T14:57:11;5.03;;;2.17;;
43098;SDS011;28715;51.988;6.020;2022-07-22T14:59:37;5.53;;;2.07;;
43098;SDS011;28715;51.988;6.020;2022-07-22T15:02:02;7.47;;;2.27;;
43098;SDS011;28715;51.988;6.020;2022-07-22T15:04:28;4.60;;;2.20;;
43098;SDS011;28715;51.988;6.020;2022-07-22T15:06:54;7.30;;;1.90;;
43098;SDS011;28715;51.988;6.020;2022-07-22T15:09:19;5.90;;;1.93;;
43098;SDS011;28715;51.988;6.020;2022-07-22T15:11:45;4.60;;;2.03;;
43098;SDS011;28715;51.988;6.020;2022-07-22T15:14:10;3.10;;;1.90;;
43098;SDS011;28715;51.988;6.020;2022-07-22T15:16:36;4.70;;;1.80;;
43098;SDS011;28715;51.988;6.020;2022-07-22T15:19:02;4.40;;;2.10;;
43098;SDS011;28715;51.988;6.020;2022-07-22T15:21:27;3.70;;;1.77;;
43098;SDS011;28715;51.988;6.020;2022-07-22T15:23:53;4.80;;;2.03;;
43098;SDS011;28715;51.988;6.020;2022-07-22T15:26:19;5.60;;;2.33;;
43098;SDS011;28715;51.988;6.020;2022-07-22T15:28:44;6.50;;;2.13;;
43098;SDS011;28715;51.988;6.020;2022-07-22T15:31:12;4.60;;;1.90;;
43098;SDS011;28715;51.988;6.020;2022-07-22T15:33:38;3.93;;;1.93;;
43098;SDS011;28715;51.988;6.020;2022-07-22T15:36:04;6.73;;;1.93;;
43098;SDS011;28715;51.988;6.020;2022-07-22T15:38:31;4.80;;;2.00;;
43098;SDS011;28715;51.988;6.020;2022-07-22T15:40:57;4.13;;;1.90;;
43098;SDS011;28715;51.988;6.020;2022-07-22T15:43:22;5.97;;;1.83;;
43098;SDS011;28715;51.988;6.020;2022-07-22T15:45:50;5.30;;;1.80;;
43098;SDS011;28715;51.988;6.020;2022-07-22T15:48:15;5.43;;;1.97;;
43098;SDS011;28715;51.988;6.020;2022-07-22T15:50:41;4.83;;;1.90;;
43098;SDS011;28715;51.988;6.020;2022-07-22T15:53:07;5.97;;;2.37;;
43098;SDS011;28715;51.988;6.020;2022-07-22T15:55:32;3.87;;;2.10;;
43098;SDS011;28715;51.988;6.020;2022-07-22T15:57:58;4.67;;;2.30;;
43098;SDS011;28715;51.988;6.020;2022-07-22T16:00:42;5.47;;;2.27;;
43098;SDS011;28715;51.988;6.020;2022-07-22T16:03:08;4.10;;;1.50;;
43098;SDS011;28715;51.988;6.020;2022-07-22T16:05:34;3.10;;;1.73;;
43098;SDS011;28715;51.988;6.020;2022-07-22T16:07:59;5.80;;;2.33;;
43098;SDS011;28715;51.988;6.020;2022-07-22T16:10:25;4.37;;;1.80;;
43098;SDS011;28715;51.988;6.020;2022-07-22T16:12:52;5.07;;;1.80;;
43098;SDS011;28715;51.988;6.020;2022-07-22T16:15:17;5.17;;;1.90;;
43098;SDS011;28715;51.988;6.020;2022-07-22T16:17:43;5.97;;;2.10;;
43098;SDS011;28715;51.988;6.020;2022-07-22T16:20:09;6.53;;;2.30;;
43098;SDS011;28715;51.988;6.020;2022-07-22T16:22:35;4.87;;;2.30;;
43098;SDS011;28715;51.988;6.020;2022-07-22T16:25:01;6.57;;;2.10;;
43098;SDS011;28715;51.988;6.020;2022-07-22T16:27:28;6.60;;;2.37;;
43098;SDS011;28715;51.988;6.020;2022-07-22T16:29:53;5.17;;;2.07;;
43098;SDS011;28715;51.988;6.020;2022-07-22T16:32:19;4.23;;;1.87;;
43098;SDS011;28715;51.988;6.020;2022-07-22T16:34:44;3.73;;;1.93;;
43098;SDS011;28715;51.988;6.020;2022-07-22T16:37:10;4.53;;;2.00;;
43098;SDS011;28715;51.988;6.020;2022-07-22T16:39:35;6.20;;;2.43;;
43098;SDS011;28715;51.988;6.020;2022-07-22T16:42:01;5.37;;;2.23;;
43098;SDS011;28715;51.988;6.020;2022-07-22T16:44:27;4.37;;;2.20;;
43098;SDS011;28715;51.988;6.020;2022-07-22T16:46:52;5.60;;;2.13;;
43098;SDS011;28715;51.988;6.020;2022-07-22T16:49:18;5.30;;;2.30;;
43098;SDS011;28715;51.988;6.020;2022-07-22T16:51:43;8.37;;;2.10;;
43098;SDS011;28715;51.988;6.020;2022-07-22T16:54:09;4.53;;;1.87;;
43098;SDS011;28715;51.988;6.020;2022-07-22T16:56:35;4.70;;;2.30;;
43098;SDS011;28715;51.988;6.020;2022-07-22T16:59:01;5.87;;;1.90;;
43098;SDS011;28715;51.988;6.020;2022-07-22T17:01:26;4.10;;;2.27;;
43098;SDS011;28715;51.988;6.020;2022-07-22T17:03:52;7.33;;;2.27;;
43098;SDS011;28715;51.988;6.020;2022-07-22T17:06:18;4.60;;;2.10;;
43098;SDS011;28715;51.988;6.020;2022-07-22T17:08:43;5.53;;;2.20;;
43098;SDS011;28715;51.988;6.020;2022-07-22T17:11:09;4.90;;;2.20;;
43098;SDS011;28715;51.988;6.020;2022-07-22T17:13:35;4.40;;;2.77;;
43098;SDS011;28715;51.988;6.020;2022-07-22T17:16:01;5.97;;;2.67;;
43098;SDS011;28715;51.988;6.020;2022-07-22T17:18:27;4.93;;;2.63;;
43098;SDS011;28715;51.988;6.020;2022-07-22T17:20:54;6.27;;;2.40;;
43098;SDS011;28715;51.988;6.020;2022-07-22T17:23:19;6.07;;;2.73;;
43098;SDS011;28715;51.988;6.020;2022-07-22T17:25:45;8.80;;;2.60;;
43098;SDS011;28715;51.988;6.020;2022-07-22T17:28:11;4.37;;;2.33;;
43098;SDS011;28715;51.988;6.020;2022-07-22T17:30:36;5.20;;;2.43;;
43098;SDS011;28715;51.988;6.020;2022-07-22T17:33:02;4.87;;;2.40;;
43098;SDS011;28715;51.988;6.020;2022-07-22T17:35:28;5.27;;;2.67;;
43098;SDS011;28715;51.988;6.020;2022-07-22T17:37:53;4.93;;;2.70;;
43098;SDS011;28715;51.988;6.020;2022-07-22T17:40:19;5.30;;;2.70;;
43098;SDS011;28715;51.988;6.020;2022-07-22T17:42:44;5.20;;;2.47;;
43098;SDS011;28715;51.988;6.020;2022-07-22T17:45:10;5.53;;;2.87;;
43098;SDS011;28715;51.988;6.020;2022-07-22T17:47:36;6.03;;;2.80;;
43098;SDS011;28715;51.988;6.020;2022-07-22T17:50:01;5.97;;;2.50;;
43098;SDS011;28715;51.988;6.020;2022-07-22T17:52:30;4.53;;;2.63;;
43098;SDS011;28715;51.988;6.020;2022-07-22T17:54:59;6.20;;;2.77;;
43098;SDS011;28715;51.988;6.020;2022-07-22T17:57:26;6.63;;;2.70;;
43098;SDS011;28715;51.988;6.020;2022-07-22T17:59:51;3.53;;;2.57;;
43098;SDS011;28715;51.988;6.020;2022-07-22T18:02:18;6.67;;;2.63;;
43098;SDS011;28715;51.988;6.020;2022-07-22T18:04:44;5.53;;;2.43;;
43098;SDS011;28715;51.988;6.020;2022-07-22T18:07:09;6.17;;;2.53;;
43098;SDS011;28715;51.988;6.020;2022-07-22T18:09:35;5.57;;;2.30;;
43098;SDS011;28715;51.988;6.020;2022-07-22T18:12:00;4.47;;;2.30;;
43098;SDS011;28715;51.988;6.020;2022-07-22T18:14:26;5.10;;;2.60;;
43098;SDS011;28715;51.988;6.020;2022-07-22T18:16:52;5.10;;;2.63;;
43098;SDS011;28715;51.988;6.020;2022-07-22T18:19:17;7.97;;;2.97;;
43098;SDS011;28715;51.988;6.020;2022-07-22T18:21:43;6.80;;;2.60;;
43098;SDS011;28715;51.988;6.020;2022-07-22T18:24:08;8.33;;;2.60;;
43098;SDS011;28715;51.988;6.020;2022-07-22T18:26:34;8.17;;;2.70;;
43098;SDS011;28715;51.988;6.020;2022-07-22T18:29:00;5.40;;;2.67;;
43098;SDS011;28715;51.988;6.020;2022-07-22T18:31:25;6.97;;;2.57;;
43098;SDS011;28715;51.988;6.020;2022-07-22T18:33:51;4.83;;;2.10;;
43098;SDS011;28715;51.988;6.020;2022-07-22T18:36:16;5.90;;;2.47;;
43098;SDS011;28715;51.988;6.020;2022-07-22T18:38:42;7.03;;;2.70;;
43098;SDS011;28715;51.988;6.020;2022-07-22T18:41:08;6.50;;;2.00;;
43098;SDS011;28715;51.988;6.020;2022-07-22T18:43:33;5.33;;;2.17;;
43098;SDS011;28715;51.988;6.020;2022-07-22T18:46:01;5.93;;;2.07;;
43098;SDS011;28715;51.988;6.020;2022-07-22T18:48:27;5.20;;;2.30;;
43098;SDS011;28715;51.988;6.020;2022-07-22T18:50:53;4.17;;;1.70;;
43098;SDS011;28715;51.988;6.020;2022-07-22T18:53:18;4.57;;;2.00;;
43098;SDS011;28715;51.988;6.020;2022-07-22T18:55:44;5.83;;;2.27;;
43098;SDS011;28715;51.988;6.020;2022-07-22T18:58:10;4.07;;;1.93;;
43098;SDS011;28715;51.988;6.020;2022-07-22T19:00:36;6.57;;;2.40;;
43098;SDS011;28715;51.988;6.020;2022-07-22T19:03:02;4.23;;;2.00;;
43098;SDS011;28715;51.988;6.020;2022-07-22T19:05:27;4.27;;;2.00;;
43098;SDS011;28715;51.988;6.020;2022-07-22T19:07:53;4.93;;;1.80;;
43098;SDS011;28715;51.988;6.020;2022-07-22T19:10:20;6.00;;;2.37;;
43098;SDS011;28715;51.988;6.020;2022-07-22T19:12:46;4.00;;;1.90;;
43098;SDS011;28715;51.988;6.020;2022-07-22T19:15:11;4.60;;;1.93;;
43098;SDS011;28715;51.988;6.020;2022-07-22T19:17:37;3.30;;;1.73;;
43098;SDS011;28715;51.988;6.020;2022-07-22T19:20:03;4.20;;;1.70;;